Terminal Aerodrome Forecast
Issued by NWS Topeka, KS

Home | Current Version | Previous Version | Graphics & Text | Print | Product List | Glossary Off
Versions: 1 2 3 4 5 6 7 8 9 10 11 12 13 14 15 16 17 18 19 20 21 22 23 24

473
FTUS43 KTOP 261249 AAA
TAFTOP
TAF AMD
KTOP 261249Z 2613/2712 31005KT P6SM FEW008 OVC015
     FM261800 04004KT P6SM SCT025 BKN040
     FM270100 03007KT P6SM -SHRA VCTS OVC025CB
     FM270500 01006KT 4SM -RA BR OVC008=

USA.gov is the U.S. government's official web portal to all federal, state and local government web resources and services.